Time;durP1;ratioP1;P1;durP2;ratioP2;P2;SDS_P1;SDS_P2;PMS_P1;PMS_P2;Temp;Humidity;BMP_temperature;BMP_pressure;BME280_temperature;BME280_humidity;BME280_pressure;Samples;Min_cycle;Max_cycle;Signal;HPM_P1;HPM_P2
2021/05/04 00:01:08;;;;;;;13.55;9.53;;;;;;;2.75;70.59;98887.34;1696181;84;21177;-70
2021/05/04 00:03:34;;;;;;;12.00;9.35;;;;;;;2.84;70.42;98889.34;1695588;84;21198;-71
2021/05/04 00:06:00;;;;;;;11.55;9.08;;;;;;;2.86;70.19;98889.77;1689221;84;21351;-70
2021/05/04 00:08:26;;;;;;;12.03;9.28;;;;;;;2.89;70.11;98885.86;1694613;84;21200;-70
2021/05/04 00:10:52;;;;;;;11.75;9.30;;;;;;;2.98;69.92;98880.34;1694561;84;21481;-70
2021/05/04 00:13:18;;;;;;;11.28;8.98;;;;;;;3.08;69.72;98887.11;1690571;84;21677;-70
2021/05/04 00:15:44;;;;;;;13.65;8.93;;;;;;;3.09;69.58;98882.75;1695919;84;21328;-70
2021/05/04 00:18:10;;;;;;;10.28;7.85;;;;;;;3.16;69.48;98882.15;1693224;84;21382;-71
2021/05/04 00:20:36;;;;;;;12.28;8.93;;;;;;;3.19;69.31;98878.81;1689929;84;21217;-70
2021/05/04 00:23:02;;;;;;;11.25;8.40;;;;;;;3.19;69.32;98879.34;1695635;84;21191;-71
2021/05/04 00:25:28;;;;;;;11.03;8.30;;;;;;;3.17;69.33;98885.64;1673122;84;21610;-70
2021/05/04 00:27:54;;;;;;;12.35;9.23;;;;;;;3.13;69.38;98885.52;1694815;84;21141;-71
2021/05/04 00:30:21;;;;;;;11.57;8.68;;;;;;;3.09;69.58;98879.30;1696651;84;21181;-71
2021/05/04 00:32:47;;;;;;;11.65;8.70;;;;;;;3.07;69.65;98880.97;1694380;84;21200;-70
2021/05/04 00:35:13;;;;;;;11.12;8.20;;;;;;;3.07;69.61;98882.30;1693657;84;21338;-70
2021/05/04 00:37:39;;;;;;;12.18;8.65;;;;;;;3.06;69.68;98880.75;1694084;84;21792;-71
2021/05/04 00:40:06;;;;;;;10.40;8.35;;;;;;;3.04;69.68;98876.85;1694803;84;21658;-70
2021/05/04 00:42:32;;;;;;;10.00;8.18;;;;;;;3.06;69.55;98875.39;1688038;83;21172;-71
2021/05/04 00:44:58;;;;;;;11.45;8.40;;;;;;;3.07;69.55;98880.19;1722721;82;21306;-70
2021/05/04 00:47:24;;;;;;;13.03;8.80;;;;;;;3.08;69.54;98881.20;1725213;82;21177;-71
2021/05/04 00:49:50;;;;;;;11.97;9.18;;;;;;;3.08;69.51;98877.72;1720813;82;21670;-70
2021/05/04 00:52:16;;;;;;;12.35;9.00;;;;;;;3.06;69.52;98875.39;1724798;83;21184;-71
2021/05/04 00:54:42;;;;;;;11.00;8.68;;;;;;;3.04;69.55;98871.48;1725425;83;21327;-71
2021/05/04 00:57:08;;;;;;;12.07;9.33;;;;;;;3.00;69.74;98871.40;1720649;83;21188;-70
2021/05/04 00:59:36;;;;;;;11.53;9.53;;;;;;;2.98;69.94;98873.63;1692722;84;21196;-70
2021/05/04 01:02:02;;;;;;;12.05;9.55;;;;;;;2.95;70.08;98872.20;1717374;83;21192;-70
2021/05/04 01:04:28;;;;;;;13.32;9.18;;;;;;;2.91;70.11;98875.34;1724867;83;21177;-70
2021/05/04 01:06:54;;;;;;;13.40;9.45;;;;;;;2.83;70.33;98871.67;1675142;84;21319;-71
2021/05/04 01:09:20;;;;;;;13.08;9.70;;;;;;;2.77;70.55;98868.45;1726063;83;21187;-71
2021/05/04 01:11:46;;;;;;;12.80;9.33;;;;;;;2.71;70.67;98866.36;1723324;83;21318;-70
2021/05/04 01:14:13;;;;;;;13.78;9.78;;;;;;;2.64;70.86;98870.95;1727331;83;21188;-70
2021/05/04 01:16:43;;;;;;;14.23;9.98;;;;;;;2.58;71.07;98862.36;1734206;83;21240;-70
2021/05/04 01:19:09;;;;;;;15.53;10.20;;;;;;;2.51;71.12;98867.53;1730682;83;21206;-70
2021/05/04 01:21:36;;;;;;;14.35;10.43;;;;;;;2.46;71.30;98866.99;1719323;83;21158;-71
2021/05/04 01:24:02;;;;;;;13.83;10.05;;;;;;;2.40;71.49;98877.14;1718575;83;21195;-71
2021/05/04 01:26:28;;;;;;;13.20;9.83;;;;;;;2.34;71.66;98877.93;1718688;83;21215;-70
2021/05/04 01:28:54;;;;;;;14.35;11.08;;;;;;;2.31;71.84;98877.27;1718788;83;21665;-71
2021/05/04 01:31:20;;;;;;;13.13;10.55;;;;;;;2.29;71.95;98866.66;1695901;83;21204;-71
2021/05/04 01:33:46;;;;;;;13.78;10.55;;;;;;;2.25;72.16;98864.45;1688604;85;21342;-71
2021/05/04 01:36:12;;;;;;;14.63;10.85;;;;;;;2.18;72.34;98869.02;1688446;85;21391;-71
2021/05/04 01:38:38;;;;;;;14.30;10.78;;;;;;;2.16;72.49;98866.69;1713723;83;21563;-70
2021/05/04 01:41:04;;;;;;;13.25;10.15;;;;;;;2.12;72.56;98862.34;1724168;83;21181;-70
2021/05/04 01:43:30;;;;;;;17.30;10.60;;;;;;;2.10;72.71;98856.52;1733562;83;21331;-70
2021/05/04 01:45:56;;;;;;;13.50;10.80;;;;;;;2.07;72.74;98856.63;1733732;83;21331;-71
2021/05/04 01:48:22;;;;;;;13.80;10.75;;;;;;;2.07;72.85;98856.63;1731684;83;21197;-71
2021/05/04 01:50:48;;;;;;;15.75;11.00;;;;;;;2.05;72.92;98855.44;1715290;82;21577;-70
2021/05/04 01:53:14;;;;;;;14.43;11.03;;;;;;;2.03;73.00;98849.63;1714135;83;21542;-71
2021/05/04 01:55:40;;;;;;;14.80;10.78;;;;;;;1.99;73.09;98849.50;1714002;83;21342;-73
2021/05/04 01:58:06;;;;;;;13.85;11.08;;;;;;;1.97;73.35;98847.73;1694398;83;21215;-71
2021/05/04 02:00:32;;;;;;;14.63;10.70;;;;;;;1.96;73.35;98846.16;1694426;83;21188;-71
2021/05/04 02:02:58;;;;;;;16.77;10.85;;;;;;;1.91;73.48;98839.68;1694516;83;21353;-71
2021/05/04 02:05:24;;;;;;;13.40;10.90;;;;;;;1.87;73.51;98842.26;1694364;83;21696;-71
2021/05/04 02:07:50;;;;;;;15.43;11.25;;;;;;;1.83;73.66;98842.72;1705379;83;21187;-70
2021/05/04 02:10:16;;;;;;;13.83;11.40;;;;;;;1.78;73.78;98840.27;1714081;83;21219;-71
2021/05/04 02:12:42;;;;;;;15.98;11.90;;;;;;;1.74;73.92;98838.79;1713815;83;21144;-71
2021/05/04 02:15:09;;;;;;;15.38;11.93;;;;;;;1.69;74.03;98838.23;1714325;83;21186;-70
2021/05/04 02:17:35;;;;;;;14.58;11.70;;;;;;;1.66;74.29;98840.24;1714324;83;21195;-70
2021/05/04 02:20:02;;;;;;;15.35;12.55;;;;;;;1.63;74.36;98838.23;1713975;83;21216;-71
2021/05/04 02:22:28;;;;;;;17.90;12.37;;;;;;;1.59;74.44;98836.02;1714434;83;21195;-71
2021/05/04 02:24:54;;;;;;;17.30;12.10;;;;;;;1.58;74.64;98837.11;1714124;83;21338;-72
2021/05/04 02:27:20;;;;;;;19.12;12.98;;;;;;;1.54;74.76;98835.11;1714200;83;21317;-71
2021/05/04 02:29:46;;;;;;;15.25;12.33;;;;;;;1.52;74.87;98829.30;1714037;83;21337;-70
2021/05/04 02:32:12;;;;;;;16.45;11.88;;;;;;;1.51;74.90;98832.33;1714155;83;21145;-71
2021/05/04 02:34:38;;;;;;;18.20;12.95;;;;;;;1.49;74.99;98827.30;1698101;83;21586;-71
2021/05/04 02:37:04;;;;;;;17.00;12.58;;;;;;;1.49;75.00;98831.87;1697667;84;21335;-71
2021/05/04 02:39:30;;;;;;;17.62;12.05;;;;;;;1.45;75.18;98821.62;1711888;84;21201;-71
2021/05/04 02:41:56;;;;;;;19.45;12.88;;;;;;;1.40;75.27;98815.92;1700723;83;21216;-71
2021/05/04 02:44:22;;;;;;;18.98;13.15;;;;;;;1.39;75.37;98825.07;1694476;84;21164;-71
2021/05/04 02:46:48;;;;;;;16.80;13.28;;;;;;;1.37;75.42;98817.92;1694593;83;21175;-71
2021/05/04 02:49:14;;;;;;;17.37;12.88;;;;;;;1.34;75.49;98818.59;1694739;83;21184;-71
2021/05/04 02:51:40;;;;;;;15.75;12.73;;;;;;;1.31;75.56;98819.27;1719066;83;21176;-71
2021/05/04 02:54:06;;;;;;;17.45;13.25;;;;;;;1.28;75.71;98819.37;1719245;83;21168;-72
2021/05/04 02:56:32;;;;;;;19.65;13.20;;;;;;;1.27;75.82;98825.81;1719034;83;21220;-71
2021/05/04 02:58:58;;;;;;;18.95;13.20;;;;;;;1.26;75.87;98822.15;1719100;83;21199;-70
2021/05/04 03:01:24;;;;;;;17.60;13.22;;;;;;;1.25;76.00;98829.93;1718935;83;21657;-71
2021/05/04 03:03:50;;;;;;;19.42;13.72;;;;;;;1.24;76.11;98829.72;1721378;83;21210;-70
2021/05/04 03:06:16;;;;;;;18.87;13.58;;;;;;;1.24;76.21;98828.38;1722019;83;22055;-71
2021/05/04 03:08:43;;;;;;;17.52;13.88;;;;;;;1.21;76.27;98822.36;1721997;83;21211;-70
2021/05/04 03:11:09;;;;;;;18.90;13.83;;;;;;;1.22;76.42;98823.91;1720304;83;21287;-70
2021/05/04 03:13:35;;;;;;;17.37;13.72;;;;;;;1.22;76.43;98823.91;1724247;83;21172;-71
2021/05/04 03:16:01;;;;;;;18.48;14.15;;;;;;;1.24;76.59;98823.03;1733970;83;21805;-71
2021/05/04 03:18:27;;;;;;;18.60;13.08;;;;;;;1.32;76.64;98824.83;1734035;83;21180;-70
2021/05/04 03:20:53;;;;;;;18.77;14.13;;;;;;;1.35;76.64;98824.16;1731703;82;21778;-71
2021/05/04 03:23:20;;;;;;;17.12;13.65;;;;;;;1.41;76.59;98815.36;1719097;83;21176;-71
2021/05/04 03:25:46;;;;;;;20.37;12.73;;;;;;;1.47;76.52;98820.70;1719460;83;21651;-71
2021/05/04 03:28:12;;;;;;;17.30;12.73;;;;;;;1.53;76.50;98811.37;1718731;83;21578;-72
2021/05/04 03:30:39;;;;;;;17.07;12.40;;;;;;;1.60;76.49;98815.59;1688902;85;21211;-70
2021/05/04 03:33:05;;;;;;;17.32;12.10;;;;;;;1.69;76.51;98816.81;1688789;84;21197;-71
2021/05/04 03:35:32;;;;;;;17.35;12.05;;;;;;;1.78;76.36;98819.62;1700675;83;21184;-70
2021/05/04 03:37:58;;;;;;;14.65;11.97;;;;;;;1.90;76.25;98825.52;1725676;83;21198;-69
2021/05/04 03:40:24;;;;;;;16.95;12.15;;;;;;;2.02;76.12;98830.64;1720622;83;21160;-71
2021/05/04 03:42:50;;;;;;;17.23;12.10;;;;;;;2.15;75.96;98834.30;1722051;83;22307;-71
2021/05/04 03:45:16;;;;;;;16.42;12.20;;;;;;;2.30;75.84;98831.50;1722037;83;21172;-71
2021/05/04 03:47:43;;;;;;;15.13;11.28;;;;;;;2.45;75.58;98830.00;1720954;83;21558;-72
2021/05/04 03:50:11;;;;;;;16.15;11.68;;;;;;;2.62;75.29;98832.99;1714788;83;21213;-72
2021/05/04 03:52:37;;;;;;;14.05;11.63;;;;;;;2.76;75.14;98834.72;1700975;84;21350;-70
2021/05/04 03:55:04;;;;;;;15.95;11.55;;;;;;;2.87;74.89;98834.45;1700737;84;21177;-71
2021/05/04 03:57:30;;;;;;;15.28;11.65;;;;;;;2.99;74.59;98838.97;1700685;84;21618;-70
2021/05/04 03:59:57;;;;;;;15.78;11.30;;;;;;;3.11;74.39;98836.81;1691434;85;21204;-70
2021/05/04 04:02:23;;;;;;;15.50;12.13;;;;;;;3.25;74.09;98839.08;1691623;85;21618;-71
2021/05/04 04:04:49;;;;;;;15.15;11.18;;;;;;;3.39;73.75;98835.41;1691460;85;21240;-71
2021/05/04 04:07:15;;;;;;;14.83;11.20;;;;;;;3.54;73.42;98837.30;1703724;84;21186;-71
2021/05/04 04:09:41;;;;;;;15.05;10.85;;;;;;;3.70;73.16;98845.94;1705648;83;21355;-71
2021/05/04 04:12:07;;;;;;;14.83;10.93;;;;;;;3.84;72.93;98847.61;1686518;83;21212;-72
2021/05/04 04:14:33;;;;;;;12.43;10.08;;;;;;;3.99;72.73;98850.85;1680636;85;21232;-71
2021/05/04 04:16:59;;;;;;;12.18;10.03;;;;;;;4.15;72.38;98850.06;1661331;85;21197;-71
2021/05/04 04:19:25;;;;;;;14.65;10.25;;;;;;;4.29;71.99;98832.89;1679495;85;21244;-72
2021/05/04 04:21:51;;;;;;;13.00;10.25;;;;;;;4.44;71.65;98842.80;1679506;85;21347;-71
2021/05/04 04:24:17;;;;;;;13.53;9.80;;;;;;;4.58;71.38;98833.47;1686316;84;21185;-70
2021/05/04 04:26:44;;;;;;;12.43;9.70;;;;;;;4.71;71.10;98837.59;1705630;84;21667;-71
2021/05/04 04:29:10;;;;;;;12.18;10.03;;;;;;;4.84;70.78;98840.34;1705630;84;21204;-70
2021/05/04 04:31:36;;;;;;;12.95;10.48;;;;;;;4.98;70.62;98845.22;1705396;83;21208;-72
2021/05/04 04:34:02;;;;;;;13.22;10.10;;;;;;;5.12;70.19;98833.94;1689781;84;21201;-71
2021/05/04 04:36:28;;;;;;;10.88;9.50;;;;;;;5.25;70.08;98830.52;1679623;85;22351;-72
2021/05/04 04:38:54;;;;;;;10.08;9.00;;;;;;;5.38;69.48;98829.80;1685958;85;21337;-71
2021/05/04 04:41:20;;;;;;;13.30;9.40;;;;;;;5.51;69.30;98823.06;1685588;85;21342;-71
2021/05/04 04:43:46;;;;;;;10.72;9.08;;;;;;;5.64;69.18;98827.13;1664238;85;21356;-71
2021/05/04 04:46:12;;;;;;;12.53;9.38;;;;;;;5.80;68.79;98827.00;1666255;85;21186;-71
2021/05/04 04:48:38;;;;;;;10.60;9.50;;;;;;;5.93;68.32;98827.59;1680931;85;21358;-71
2021/05/04 04:51:04;;;;;;;10.98;9.40;;;;;;;6.07;68.21;98827.83;1707265;82;21323;-71
2021/05/04 04:53:30;;;;;;;12.10;10.00;;;;;;;6.22;68.01;98828.82;1724909;82;21619;-71
2021/05/04 04:55:56;;;;;;;13.10;11.73;;;;;;;6.51;67.22;98834.58;1719340;83;21188;-71
2021/05/04 04:58:22;;;;;;;11.18;8.48;;;;;;;6.51;67.22;98834.58;1719035;83;21199;-72
2021/05/04 05:00:48;;;;;;;10.68;9.10;;;;;;;6.64;66.80;98829.16;1719075;83;21232;-71
2021/05/04 05:03:14;;;;;;;8.60;7.60;;;;;;;6.76;66.76;98827.55;1718865;83;21237;-71
2021/05/04 05:05:40;;;;;;;12.35;8.88;;;;;;;6.88;66.51;98823.27;1721714;83;21344;-71
2021/05/04 05:08:06;;;;;;;10.28;8.08;;;;;;;7.02;66.18;98820.53;1723826;83;21180;-71
2021/05/04 05:10:32;;;;;;;8.70;7.33;;;;;;;7.16;66.03;98826.64;1705544;83;21316;-72
2021/05/04 05:12:58;;;;;;;11.18;7.50;;;;;;;7.29;65.31;98823.89;1716890;82;21326;-70
2021/05/04 05:15:25;;;;;;;9.10;7.08;;;;;;;7.41;65.06;98820.90;1711750;82;21173;-71
2021/05/04 05:17:51;;;;;;;9.15;7.20;;;;;;;7.54;64.83;98822.17;1685985;84;21647;-71
2021/05/04 05:20:17;;;;;;;9.28;7.50;;;;;;;7.68;64.61;98814.75;1723998;83;21327;-72
2021/05/04 05:22:44;;;;;;;7.90;7.10;;;;;;;7.83;64.22;98817.01;1714371;83;21311;-71
2021/05/04 05:25:10;;;;;;;9.03;6.85;;;;;;;7.94;63.82;98821.91;1670775;84;21206;-71
2021/05/04 05:27:36;;;;;;;8.40;6.47;;;;;;;8.06;62.66;98824.11;1716315;83;21201;-71
2021/05/04 05:30:05;;;;;;;8.50;7.12;;;;;;;8.13;62.81;98820.08;1715236;83;21370;-71
2021/05/04 05:32:31;;;;;;;9.30;6.95;;;;;;;8.25;62.49;98823.06;1717590;83;21160;-71
2021/05/04 05:34:57;;;;;;;7.97;6.92;;;;;;;8.37;62.69;98826.79;1715506;82;21211;-70
2021/05/04 05:37:23;;;;;;;8.48;6.65;;;;;;;8.51;62.19;98831.52;1715163;83;21622;-71
2021/05/04 05:39:49;;;;;;;8.03;6.50;;;;;;;8.65;62.03;98824.26;1715644;83;21193;-70
2021/05/04 05:42:15;;;;;;;8.58;6.40;;;;;;;8.82;61.10;98827.41;1713515;83;21614;-72
2021/05/04 05:44:41;;;;;;;7.80;6.12;;;;;;;8.92;60.50;98829.39;1713236;83;21322;-73
2021/05/04 05:47:07;;;;;;;7.30;6.08;;;;;;;9.03;60.44;98823.98;1726408;83;21599;-71
2021/05/04 05:49:33;;;;;;;7.97;6.10;;;;;;;9.14;60.14;98823.45;1716605;82;21198;-73
2021/05/04 05:51:59;;;;;;;6.60;5.60;;;;;;;9.28;59.79;98828.12;1718664;83;21216;-73
2021/05/04 05:54:26;;;;;;;7.00;5.47;;;;;;;9.40;59.11;98824.25;1718778;83;21338;-72
2021/05/04 05:56:52;;;;;;;7.92;5.50;;;;;;;9.50;58.95;98831.04;1717918;83;21196;-72
2021/05/04 05:59:18;;;;;;;5.90;4.90;;;;;;;9.61;58.48;98819.44;1718211;83;21760;-72
2021/05/04 06:01:44;;;;;;;7.05;5.00;;;;;;;9.70;57.61;98823.88;1717459;83;21180;-70
2021/05/04 06:04:10;;;;;;;5.50;4.75;;;;;;;9.77;57.45;98827.37;1718035;83;21185;-71
2021/05/04 06:06:36;;;;;;;6.70;4.67;;;;;;;9.85;57.33;98818.66;1718149;83;21224;-72
2021/05/04 06:09:02;;;;;;;7.40;4.90;;;;;;;9.94;57.10;98814.95;1718110;83;21322;-73
2021/05/04 06:11:28;;;;;;;4.72;4.20;;;;;;;10.09;56.68;98812.21;1718356;83;21725;-71
2021/05/04 06:13:54;;;;;;;6.83;4.78;;;;;;;10.19;55.96;98815.49;1718578;83;21206;-71
2021/05/04 06:16:20;;;;;;;5.95;4.35;;;;;;;10.28;56.16;98814.52;1720579;83;21177;-73
2021/05/04 06:18:46;;;;;;;6.15;4.60;;;;;;;10.39;55.74;98803.63;1721458;83;21331;-71
2021/05/04 06:21:12;;;;;;;6.80;4.78;;;;;;;10.50;55.08;98804.37;1698088;83;21146;-70
2021/05/04 06:23:38;;;;;;;7.60;4.90;;;;;;;10.60;54.55;98805.50;1721781;83;21196;-72
2021/05/04 06:26:04;;;;;;;4.80;4.30;;;;;;;10.68;53.99;98804.89;1714149;83;21224;-70
2021/05/04 06:28:31;;;;;;;5.15;4.20;;;;;;;10.76;53.68;98811.25;1718079;83;21219;-71
2021/05/04 06:30:57;;;;;;;5.42;4.28;;;;;;;10.84;53.46;98805.21;1722127;83;21485;-71
2021/05/04 06:33:23;;;;;;;5.42;4.60;;;;;;;10.91;53.01;98803.03;1717829;82;21227;-74
2021/05/04 06:35:49;;;;;;;7.00;4.50;;;;;;;10.99;53.08;98799.88;1709994;83;22116;-71
2021/05/04 06:38:17;;;;;;;4.20;3.70;;;;;;;11.12;53.09;98793.40;1724463;83;21327;-71
2021/05/04 06:40:44;;;;;;;5.28;4.08;;;;;;;11.22;52.39;98788.48;1723082;83;21192;-71
2021/05/04 06:43:10;;;;;;;7.60;3.77;;;;;;;11.33;52.40;98791.13;1713007;83;21263;-71
2021/05/04 06:45:38;;;;;;;4.78;3.50;;;;;;;11.43;51.64;98791.65;1721754;83;21216;-71
2021/05/04 06:48:04;;;;;;;5.45;3.85;;;;;;;11.46;51.31;98786.00;1721581;82;21209;-74
2021/05/04 06:50:30;;;;;;;4.37;3.55;;;;;;;11.48;50.65;98781.67;1715296;83;21762;-72
2021/05/04 06:52:56;;;;;;;5.50;3.90;;;;;;;11.53;51.33;98783.20;1720586;83;21176;-71
2021/05/04 06:55:22;;;;;;;5.37;3.95;;;;;;;11.62;51.12;98782.17;1719375;83;21196;-71
2021/05/04 06:57:50;;;;;;;3.65;3.20;;;;;;;11.74;50.58;98781.66;1718969;83;21682;-71
2021/05/04 07:00:16;;;;;;;4.97;3.60;;;;;;;11.85;50.15;98780.80;1715396;83;21201;-72
2021/05/04 07:02:42;;;;;;;6.15;3.75;;;;;;;11.94;49.19;98778.40;1719667;83;21683;-71
2021/05/04 07:05:09;;;;;;;4.05;3.20;;;;;;;12.01;48.93;98774.84;1715817;83;21330;-71
2021/05/04 07:07:35;;;;;;;4.60;3.50;;;;;;;12.10;49.09;98779.98;1717755;82;21149;-72
2021/05/04 07:10:02;;;;;;;5.30;3.58;;;;;;;11.02;49.17;98589.88;1714425;83;21166;-71
2021/05/04 07:12:28;;;;;;;4.30;3.40;;;;;;;12.33;48.46;98763.59;1681688;84;21161;-72
2021/05/04 07:14:54;;;;;;;4.80;3.30;;;;;;;12.40;48.21;98764.28;1719791;83;21192;-71
2021/05/04 07:17:20;;;;;;;5.45;4.40;;;;;;;12.48;47.91;98766.93;1716659;83;21681;-73
2021/05/04 07:19:46;;;;;;;4.00;3.30;;;;;;;12.54;47.26;98760.61;1682085;84;21204;-71
2021/05/04 07:22:12;;;;;;;3.33;3.02;;;;;;;12.58;46.75;98751.05;1679078;84;21536;-71
2021/05/04 07:24:38;;;;;;;5.65;4.00;;;;;;;12.63;46.48;98752.73;1715775;83;21188;-71
2021/05/04 07:27:08;;;;;;;14.45;7.67;;;;;;;12.74;46.57;98744.98;1716642;83;21307;-74
2021/05/04 07:29:35;;;;;;;5.08;3.22;;;;;;;12.83;45.69;98739.81;1681440;85;21189;-72
2021/05/04 07:32:01;;;;;;;3.72;3.00;;;;;;;12.85;44.80;98738.81;1716872;83;21196;-71
2021/05/04 07:34:27;;;;;;;7.17;4.10;;;;;;;12.88;45.46;98729.81;1716347;83;21334;-70
2021/05/04 07:36:53;;;;;;;6.15;3.42;;;;;;;12.97;44.84;98730.06;1716524;83;21181;-71
2021/05/04 07:39:19;;;;;;;3.12;2.70;;;;;;;13.04;44.74;98724.52;1716884;83;21549;-72
2021/05/04 07:41:45;;;;;;;4.08;2.83;;;;;;;13.11;44.36;98718.94;1722079;83;21196;-70
2021/05/04 07:44:11;;;;;;;2.77;2.50;;;;;;;13.20;43.83;98718.41;1716071;83;21338;-70
2021/05/04 07:46:37;;;;;;;3.05;2.50;;;;;;;13.23;43.66;98713.52;1717560;82;21142;-73
2021/05/04 07:49:06;;;;;;;3.22;2.52;;;;;;;13.30;43.46;98716.73;1718668;83;21624;-74
2021/05/04 07:51:31;;;;;;;4.72;3.25;;;;;;;13.28;42.95;98703.50;1718970;83;21140;-73
2021/05/04 07:53:57;;;;;;;2.75;2.22;;;;;;;13.31;42.50;98693.15;1718253;83;22390;-72
2021/05/04 07:56:23;;;;;;;3.72;2.40;;;;;;;13.35;42.37;98682.77;1718906;83;21524;-72
2021/05/04 07:58:49;;;;;;;4.00;2.92;;;;;;;13.36;41.72;98712.94;1716150;83;21330;-71
2021/05/04 08:01:15;;;;;;;3.75;3.25;;;;;;;13.42;42.47;98676.60;1725410;83;21176;-72
2021/05/04 08:03:41;;;;;;;4.12;2.95;;;;;;;13.54;41.99;98671.12;1713567;82;22297;-71
2021/05/04 08:06:07;;;;;;;6.45;2.50;;;;;;;13.63;41.99;98667.84;1717510;83;21363;-72
2021/05/04 08:08:33;;;;;;;3.77;2.60;;;;;;;13.70;41.72;98657.57;1720898;83;21173;-71
2021/05/04 08:10:59;;;;;;;3.12;2.50;;;;;;;13.79;42.08;98661.11;1686765;84;21169;-71
2021/05/04 08:13:25;;;;;;;3.72;2.62;;;;;;;13.89;41.17;98660.73;1715566;83;21216;-73
2021/05/04 08:15:52;;;;;;;3.02;2.40;;;;;;;13.98;41.45;98656.23;1720401;83;21184;-71
2021/05/04 08:18:18;;;;;;;3.45;2.17;;;;;;;14.06;40.98;98658.84;1717164;83;21153;-70
2021/05/04 08:20:52;;;;;;;2.70;2.10;;;;;;;14.16;40.79;98654.52;1711433;83;21184;-72
2021/05/04 08:23:13;;;;;;;3.50;2.25;;;;;;;14.25;40.44;98654.55;1685613;84;21225;-72
2021/05/04 08:25:39;;;;;;;3.00;2.43;;;;;;;14.31;40.00;98649.52;1722839;83;21161;-72
2021/05/04 08:28:05;;;;;;;2.42;2.22;;;;;;;14.33;39.61;98650.47;1712873;82;21157;-71
2021/05/04 08:30:31;;;;;;;3.12;2.17;;;;;;;14.37;39.74;98645.69;1714073;83;21316;-71
2021/05/04 08:32:57;;;;;;;3.12;2.10;;;;;;;14.41;39.37;98643.05;1712594;83;21558;-72
2021/05/04 08:35:25;;;;;;;3.72;2.02;;;;;;;14.43;38.93;98635.78;1716630;83;21182;-72
2021/05/04 08:37:51;;;;;;;3.62;2.10;;;;;;;14.44;39.44;98629.91;1711928;83;21163;-71
2021/05/04 08:40:17;;;;;;;2.85;2.25;;;;;;;14.50;39.06;98628.05;1692379;83;21141;-72
2021/05/04 08:42:43;;;;;;;3.55;2.10;;;;;;;14.55;39.37;98620.14;1711332;83;21330;-72
2021/05/04 08:45:10;;;;;;;2.15;1.92;;;;;;;14.62;38.90;98615.88;1713880;83;21172;-70
2021/05/04 08:47:36;;;;;;;2.47;2.23;;;;;;;14.72;39.08;98618.78;1711792;83;21180;-73
2021/05/04 08:50:03;;;;;;;3.72;2.30;;;;;;;14.83;38.85;98610.48;1714201;83;21172;-71
2021/05/04 08:52:29;;;;;;;2.83;2.10;;;;;;;14.90;38.32;98614.27;1693173;83;21173;-71
2021/05/04 08:54:55;;;;;;;2.80;1.85;;;;;;;14.96;38.22;98609.81;1680894;85;21193;-74
2021/05/04 08:57:21;;;;;;;2.35;2.10;;;;;;;15.03;37.33;98590.48;1680189;85;21314;-72
2021/05/04 08:59:47;;;;;;;2.95;2.20;;;;;;;15.12;37.66;98593.39;1680681;84;21596;-74
2021/05/04 09:02:14;;;;;;;2.55;2.00;;;;;;;15.22;37.88;98588.82;1682122;84;21181;-72
2021/05/04 09:04:50;;;;;;;2.30;2.08;;;;;;;15.37;37.17;98586.49;1682856;85;21200;-73
2021/05/04 09:07:27;;;;;;;2.37;1.80;;;;;;;15.50;36.42;98591.41;1679100;84;21169;-74
2021/05/04 09:10:00;;;;;;;;;;;;;;;15.64;36.05;98584.17;1681728;85;21215;-71
2021/05/04 09:12:31;;;;;;;2.10;1.90;;;;;;;15.81;36.62;98571.81;1663984;85;20160;-71
2021/05/04 09:15:03;;;;;;;2.83;1.80;;;;;;;15.89;36.54;98568.42;1680486;85;21165;-73
2021/05/04 09:17:38;;;;;;;3.15;1.80;;;;;;;15.97;35.81;98563.52;1639066;86;21191;-70
2021/05/04 09:22:40;;;;;;;2.55;1.62;;;;;;;15.97;35.28;98567.63;1682740;85;21169;-74
2021/05/04 09:25:09;;;;;;;2.25;1.50;;;;;;;16.03;35.33;98565.11;1681840;84;21636;-71
2021/05/04 09:27:35;;;;;;;2.85;1.60;;;;;;;16.08;34.77;98562.59;1658378;84;21182;-71
2021/05/04 09:30:02;;;;;;;2.67;1.70;;;;;;;16.08;35.80;98528.34;1680291;84;21289;-71
2021/05/04 09:32:33;;;;;;;2.75;1.75;;;;;;;16.38;34.85;98550.31;1681625;85;21677;-73
2021/05/04 09:35:01;;;;;;;2.50;1.70;;;;;;;16.51;34.12;98548.17;1680314;84;21188;-72
2021/05/04 09:37:36;;;;;;;2.98;1.75;;;;;;;16.78;33.89;98544.98;1681044;85;21214;-72
2021/05/04 09:40:23;;;;;;;2.50;1.72;;;;;;;17.08;33.08;98536.10;1678631;84;21193;-74
2021/05/04 09:43:18;;;;;;;2.87;1.62;;;;;;;17.22;33.27;98539.56;1679943;85;21612;-73
2021/05/04 09:45:58;;;;;;;2.92;1.80;;;;;;;17.29;33.30;98526.95;1606047;87;21296;-72
2021/05/04 09:48:31;;;;;;;2.65;2.05;;;;;;;17.47;32.88;98520.22;1670565;84;21173;-72
2021/05/04 09:51:19;;;;;;;2.12;1.70;;;;;;;17.72;32.53;98512.42;1678830;84;21192;-72
2021/05/04 09:53:58;;;;;;;2.72;1.72;;;;;;;17.83;32.14;98521.66;1709967;83;21574;-73
2021/05/04 09:56:18;;;;;;;4.22;1.70;;;;;;;17.80;31.68;98506.70;1716858;83;21185;-71
2021/05/04 09:58:49;;;;;;;1.90;1.60;;;;;;;17.69;32.38;98514.70;1715119;83;21200;-69
2021/05/04 10:01:40;;;;;;;2.42;1.82;;;;;;;17.63;33.07;98517.12;1715164;83;21204;-75
2021/05/04 10:04:06;;;;;;;3.20;1.82;;;;;;;17.63;32.80;98503.39;1639402;86;21158;-72
2021/05/04 10:06:32;;;;;;;2.35;1.70;;;;;;;17.68;32.67;98494.56;1640760;86;21350;-69
2021/05/04 10:08:58;;;;;;;3.62;1.72;;;;;;;17.77;32.36;98489.72;1638626;86;21614;-73
2021/05/04 10:11:24;;;;;;;2.52;1.80;;;;;;;17.84;32.57;98492.21;1639160;86;21355;-73
2021/05/04 10:13:54;;;;;;;2.58;1.77;;;;;;;17.83;32.65;98490.08;1645120;86;21709;-74
2021/05/04 10:16:25;;;;;;;2.10;1.80;;;;;;;17.87;32.79;98491.30;1638547;85;21219;-72
2021/05/04 10:18:51;;;;;;;2.50;1.62;;;;;;;17.91;32.68;98478.97;1698811;83;22330;-70
2021/05/04 10:21:17;;;;;;;3.53;1.83;;;;;;;17.97;32.66;98473.65;1695491;83;21229;-74
2021/05/04 10:23:45;;;;;;;2.25;1.80;;;;;;;18.01;32.67;98472.16;1697722;83;21924;-74
2021/05/04 10:26:14;;;;;;;2.80;1.67;;;;;;;17.90;32.67;98471.95;1700175;83;21219;-72
2021/05/04 10:28:39;;;;;;;2.70;2.00;;;;;;;17.84;32.60;98470.23;1696536;83;21174;-71
2021/05/04 10:31:07;;;;;;;2.30;1.80;;;;;;;17.82;32.31;98458.34;1698668;83;21213;-74
2021/05/04 10:33:34;;;;;;;2.25;1.70;;;;;;;17.80;33.13;98453.91;1698401;83;21655;-73
2021/05/04 10:36:02;;;;;;;3.05;1.90;;;;;;;17.89;32.82;98460.03;1665749;83;21227;-72
2021/05/04 10:38:38;;;;;;;2.50;1.90;;;;;;;17.83;32.72;98449.48;1664427;83;21168;-73
2021/05/04 10:41:08;;;;;;;2.12;1.90;;;;;;;17.69;32.47;98447.42;1691048;83;21195;-71
2021/05/04 10:43:35;;;;;;;2.75;1.90;;;;;;;17.69;33.21;98433.69;1697432;83;21224;-71
2021/05/04 10:46:03;;;;;;;3.17;2.08;;;;;;;17.77;32.92;98435.55;1696192;82;21687;-71
2021/05/04 10:48:41;;;;;;;2.25;1.85;;;;;;;17.79;33.57;98427.66;1696709;83;21589;-74
2021/05/04 10:51:11;;;;;;;2.30;2.05;;;;;;;17.76;33.13;98418.93;1700107;83;21204;-73
2021/05/04 10:53:53;;;;;;;3.83;1.85;;;;;;;17.75;33.64;98420.12;1693469;83;21643;-72
2021/05/04 10:56:34;;;;;;;2.65;1.85;;;;;;;17.88;33.35;98410.45;1694288;83;21216;-72
2021/05/04 10:59:00;;;;;;;3.02;2.08;;;;;;;17.96;33.78;98415.81;1696424;83;21159;-74
2021/05/04 11:01:26;;;;;;;3.05;2.05;;;;;;;17.89;33.68;98399.60;1700805;83;22497;-71
2021/05/04 11:03:56;;;;;;;4.50;2.17;;;;;;;17.89;34.10;98403.11;1690667;83;21214;-72
2021/05/04 11:06:26;;;;;;;3.67;2.08;;;;;;;17.97;33.69;98398.86;1687328;83;21177;-73
2021/05/04 11:08:57;;;;;;;2.40;2.12;;;;;;;18.09;34.54;98398.59;1680960;83;21188;-72
2021/05/04 11:11:25;;;;;;;3.10;2.15;;;;;;;18.21;34.89;98390.06;1682942;83;21209;-73
2021/05/04 11:13:59;;;;;;;3.52;2.17;;;;;;;18.24;33.78;98398.00;1687278;83;21181;-71
2021/05/04 11:16:37;;;;;;;3.02;2.20;;;;;;;18.09;33.83;98391.73;1685198;83;21235;-72
2021/05/04 11:19:11;;;;;;;4.05;2.50;;;;;;;17.99;33.99;98380.55;1682736;83;21215;-74
2021/05/04 11:21:43;;;;;;;3.22;2.67;;;;;;;18.03;34.39;98371.55;1689261;83;21703;-72
2021/05/04 11:24:13;;;;;;;3.30;2.50;;;;;;;18.19;33.84;98364.39;1684901;83;21228;-72
2021/05/04 11:26:45;;;;;;;4.33;2.52;;;;;;;18.26;34.08;98363.34;1686029;83;21218;-72
2021/05/04 11:29:11;;;;;;;2.85;2.30;;;;;;;18.30;34.13;98357.69;1679748;83;21676;-72
2021/05/04 11:31:38;;;;;;;4.65;2.80;;;;;;;18.30;34.04;98353.56;1691209;83;21214;-72
2021/05/04 11:34:34;;;;;;;2.90;2.33;;;;;;;18.27;33.81;98339.37;1689339;83;21183;-73